This is the latest recevied weather packets stored in our database for station/object K9RCP-24. If no packets are shown the sender has not sent any weather packets the latest 10 day(s).
| Time | Temp. | Humidity | Pressure | Rain* | Wind** | Luminosity | Snow |
|---|---|---|---|---|---|---|---|
| 1777538175 | 10° C | 77% | 1023.4 hPa | 0 mm | - | - | - |
| 1777538153 | 10° C | 77% | 1023.4 hPa | 0 mm | - | - | - |
| 1777537111 | 10° C | 77% | 1023.4 hPa | 0 mm | - | - | - |
| 1777536861 | 10° C | 76% | 1023.4 hPa | 0 mm | - | - | - |
| 1777536086 | 10° C | 76% | 1023.4 hPa | 0 mm | - | - | - |
| 1777535962 | 10° C | 76% | 1023.4 hPa | 0 mm | - | - | - |
| 1777535715 | 10° C | 75% | 1023.4 hPa | 0 mm | - | - | - |
| 1777535342 | 10.56° C | 75% | 1023.4 hPa | 0 mm | - | - | - |
| 1777534969 | 10.56° C | 74% | 1023.4 hPa | 0 mm | - | - | - |
| 1777533795 | 11.11° C | 72% | 1023.4 hPa | 0 mm | - | - | - |
| 1777532883 | 11.67° C | 71% | 1023.4 hPa | 0 mm | - | - | - |
| 1777531793 | 11.67° C | 71% | 1023.4 hPa | 0 mm | - | - | - |
| 1777531418 | 11.67° C | 71% | 1023.7 hPa | 0 mm | - | - | - |
| 1777530483 | 12.22° C | 69% | 1023.7 hPa | 0 mm | - | - | - |
| 1777530358 | 12.22° C | 69% | 1023.4 hPa | 0 mm | - | - | - |
| 1777529981 | 12.78° C | 68% | 1023.4 hPa | 0 mm | - | - | - |
| 1777529608 | 12.78° C | 67% | 1023.4 hPa | 0 mm | - | - | - |
| 1777529357 | 13.33° C | 66% | 1023.4 hPa | 0 mm | - | - | - |
| 1777528703 | 13.89° C | 63% | 1023.7 hPa | 0 mm | - | - | - |
| 1777527675 | 15.56° C | 57% | 1023.7 hPa | 0 mm | - | - | - |
| 1777526395 | 17.78° C | 49% | 1023.7 hPa | 0 mm | - | - | - |
| 1777526373 | 17.22° C | 50% | 1023.7 hPa | 0 mm | - | - | - |
| 1777525956 | 17.22° C | 51% | 1023.7 hPa | 0 mm | - | - | - |
| 1777524679 | 17.78° C | 48% | 1023.7 hPa | 0 mm | - | - | - |
| 1777524401 | 17.78° C | 49% | 1023.7 hPa | 0 mm | - | - | - |
* Rain latest hour (hover to see other rain measurements)
** Current wind speed in m/s (hover to see current wind gust speed)